Time,TemperatureF,DewpointF,PressureIn,WindDirection,WindDirectionDegrees,WindSpeedMPH,WindSpeedGustMPH,Humidity,HourlyPrecipIn,Conditions,Clouds,dailyrainin,SoftwareType,DateUTC
2013-08-09 00:01:00,77.7,73.5,29.98,NE,54,0.0,0.0,87,0.00,,,0.00,WUHU216DAVISVP2,2013-08-09 04:01:00,
2013-08-09 00:06:00,77.7,73.5,29.98,NE,54,0.0,0.0,87,0.00,,,0.00,WUHU216DAVISVP2,2013-08-09 04:06:00,
2013-08-09 00:11:00,77.9,73.7,29.98,NE,54,0.0,0.0,87,0.00,,,0.00,WUHU216DAVISVP2,2013-08-09 04:11:00,
2013-08-09 00:16:00,77.6,73.4,29.98,NE,54,0.0,0.0,87,0.00,,,0.00,WUHU216DAVISVP2,2013-08-09 04:16:00,
2013-08-09 00:21:00,77.7,73.5,29.98,NE,54,0.0,0.0,87,0.00,,,0.00,WUHU216DAVISVP2,2013-08-09 04:21:00,
2013-08-09 00:26:00,77.7,73.5,29.97,NE,54,0.0,0.0,87,0.00,,,0.00,WUHU216DAVISVP2,2013-08-09 04:26:00,
2013-08-09 00:31:00,77.7,73.5,29.97,NE,54,0.0,0.0,87,0.00,,,0.00,WUHU216DAVISVP2,2013-08-09 04:31:00,
2013-08-09 00:36:00,77.4,73.6,29.97,NE,54,0.0,0.0,88,0.00,,,0.00,WUHU216DAVISVP2,2013-08-09 04:36:00,
2013-08-09 00:41:00,77.4,73.6,29.97,NE,54,0.0,0.0,88,0.00,,,0.00,WUHU216DAVISVP2,2013-08-09 04:41:00,
2013-08-09 00:46:00,77.6,73.8,29.97,NE,54,0.0,0.0,88,0.00,,,0.00,WUHU216DAVISVP2,2013-08-09 04:46:00,
2013-08-09 00:51:00,77.4,73.6,29.97,NE,54,0.0,0.0,88,0.00,,,0.00,WUHU216DAVISVP2,2013-08-09 04:51:00,
2013-08-09 00:56:00,77.4,73.6,29.97,NE,54,0.0,0.0,88,0.00,,,0.00,WUHU216DAVISVP2,2013-08-09 04:56:00,
2013-08-09 01:03:00,77.4,73.6,29.97,NE,54,0.0,0.0,88,0.00,,,0.00,WUHU216DAVISVP2,2013-08-09 05:03:00,
2013-08-09 01:08:00,77.6,73.8,29.97,NE,54,0.0,0.0,88,0.00,,,0.00,WUHU216DAVISVP2,2013-08-09 05:08:00,
2013-08-09 01:13:00,77.6,73.8,29.97,NE,54,0.0,0.0,88,0.00,,,0.00,WUHU216DAVISVP2,2013-08-09 05:13:00,
2013-08-09 01:18:00,77.6,73.8,29.97,NE,54,0.0,0.0,88,0.00,,,0.00,WUHU216DAVISVP2,2013-08-09 05:18:00,
2013-08-09 01:23:00,77.6,73.8,29.97,NE,54,0.0,0.0,88,0.00,,,0.00,WUHU216DAVISVP2,2013-08-09 05:23:00,
2013-08-09 01:28:00,77.6,73.8,29.97,NE,54,0.0,0.0,88,0.00,,,0.00,WUHU216DAVISVP2,2013-08-09 05:28:00,
2013-08-09 01:33:00,77.4,73.6,29.97,NE,54,0.0,0.0,88,0.00,,,0.00,WUHU216DAVISVP2,2013-08-09 05:33:00,
2013-08-09 01:38:00,77.6,73.8,29.97,NE,54,0.0,0.0,88,0.00,,,0.00,WUHU216DAVISVP2,2013-08-09 05:38:00,
2013-08-09 01:43:00,77.6,73.8,29.97,NE,54,0.0,0.0,88,0.00,,,0.00,WUHU216DAVISVP2,2013-08-09 05:43:00,
2013-08-09 01:48:00,77.6,73.8,29.97,NE,54,0.0,0.0,88,0.00,,,0.00,WUHU216DAVISVP2,2013-08-09 05:48:00,
2013-08-09 01:53:00,77.6,73.8,29.96,NE,54,0.0,0.0,88,0.00,,,0.00,WUHU216DAVISVP2,2013-08-09 05:53:00,
2013-08-09 01:58:00,77.6,73.8,29.96,NE,54,0.0,0.0,88,0.00,,,0.00,WUHU216DAVISVP2,2013-08-09 05:58:00,
2013-08-09 02:03:00,77.6,73.8,29.96,NE,54,0.0,0.0,88,0.00,,,0.00,WUHU216DAVISVP2,2013-08-09 06:03:00,
2013-08-09 02:08:00,77.4,73.6,29.96,NE,54,0.0,0.0,88,0.00,,,0.00,WUHU216DAVISVP2,2013-08-09 06:08:00,
2013-08-09 02:13:00,77.6,73.8,29.96,NE,54,0.0,0.0,88,0.00,,,0.00,WUHU216DAVISVP2,2013-08-09 06:13:00,
2013-08-09 02:18:00,77.4,73.6,29.96,NE,54,0.0,0.0,88,0.00,,,0.00,WUHU216DAVISVP2,2013-08-09 06:18:00,
2013-08-09 02:23:00,77.4,73.9,29.96,NE,54,0.0,0.0,89,0.00,,,0.00,WUHU216DAVISVP2,2013-08-09 06:23:00,
2013-08-09 02:28:00,77.6,74.1,29.96,NE,54,0.0,0.0,89,0.00,,,0.00,WUHU216DAVISVP2,2013-08-09 06:28:00,
2013-08-09 02:33:00,77.4,73.9,29.96,NE,54,0.0,0.0,89,0.00,,,0.00,WUHU216DAVISVP2,2013-08-09 06:33:00,
2013-08-09 02:38:00,77.6,74.1,29.96,NE,54,0.0,0.0,89,0.00,,,0.00,WUHU216DAVISVP2,2013-08-09 06:38:00,
2013-08-09 02:43:00,77.4,73.9,29.96,NE,54,0.0,0.0,89,0.00,,,0.00,WUHU216DAVISVP2,2013-08-09 06:43:00,
2013-08-09 02:48:00,77.2,73.7,29.96,NE,54,0.0,0.0,89,0.00,,,0.00,WUHU216DAVISVP2,2013-08-09 06:48:00,
2013-08-09 02:53:00,77.2,73.7,29.96,NE,54,0.0,0.0,89,0.00,,,0.00,WUHU216DAVISVP2,2013-08-09 06:53:00,
2013-08-09 02:58:00,77.2,73.7,29.96,NE,54,0.0,0.0,89,0.00,,,0.00,WUHU216DAVISVP2,2013-08-09 06:58:00,
2013-08-09 03:03:00,77.2,73.7,29.96,NE,54,0.0,0.0,89,0.00,,,0.00,WUHU216DAVISVP2,2013-08-09 07:03:00,
2013-08-09 03:08:00,77.2,73.7,29.95,NE,54,0.0,0.0,89,0.00,,,0.00,WUHU216DAVISVP2,2013-08-09 07:08:00,
2013-08-09 03:13:00,77.0,73.5,29.95,NE,54,0.0,0.0,89,0.00,,,0.00,WUHU216DAVISVP2,2013-08-09 07:13:00,
2013-08-09 03:18:00,77.0,73.5,29.95,NE,54,0.0,0.0,89,0.00,,,0.00,WUHU216DAVISVP2,2013-08-09 07:18:00,
2013-08-09 03:23:00,77.2,73.7,29.95,NE,54,0.0,0.0,89,0.00,,,0.00,WUHU216DAVISVP2,2013-08-09 07:23:00,
2013-08-09 03:28:00,77.0,73.5,29.95,NE,54,0.0,0.0,89,0.00,,,0.00,WUHU216DAVISVP2,2013-08-09 07:28:00,
2013-08-09 03:33:00,77.2,73.7,29.95,NE,54,0.0,0.0,89,0.00,,,0.00,WUHU216DAVISVP2,2013-08-09 07:33:00,
2013-08-09 03:38:00,77.0,73.5,29.95,NE,54,0.0,0.0,89,0.00,,,0.00,WUHU216DAVISVP2,2013-08-09 07:38:00,
2013-08-09 03:43:00,77.0,73.5,29.95,NE,54,0.0,0.0,89,0.00,,,0.00,WUHU216DAVISVP2,2013-08-09 07:43:00,
2013-08-09 03:48:00,77.0,73.5,29.95,NE,54,0.0,0.0,89,0.00,,,0.00,WUHU216DAVISVP2,2013-08-09 07:48:00,
2013-08-09 03:53:00,77.0,73.5,29.96,NE,54,0.0,0.0,89,0.00,,,0.00,WUHU216DAVISVP2,2013-08-09 07:53:00,
2013-08-09 03:58:00,77.0,73.5,29.96,NE,54,0.0,0.0,89,0.00,,,0.00,WUHU216DAVISVP2,2013-08-09 07:58:00,
2013-08-09 04:03:00,77.0,73.5,29.96,NE,54,0.0,0.0,89,0.00,,,0.00,WUHU216DAVISVP2,2013-08-09 08:03:00,
2013-08-09 04:08:00,76.8,73.3,29.96,NE,54,0.0,0.0,89,0.00,,,0.00,WUHU216DAVISVP2,2013-08-09 08:08:00,
2013-08-09 04:13:00,77.0,73.5,29.96,NE,54,0.0,0.0,89,0.00,,,0.00,WUHU216DAVISVP2,2013-08-09 08:13:00,
2013-08-09 04:18:00,77.2,73.7,29.96,NE,54,0.0,0.0,89,0.00,,,0.00,WUHU216DAVISVP2,2013-08-09 08:18:00,
2013-08-09 04:23:00,77.0,73.5,29.96,NE,54,0.0,0.0,89,0.00,,,0.00,WUHU216DAVISVP2,2013-08-09 08:23:00,
2013-08-09 04:28:00,76.7,73.2,29.96,NE,54,0.0,0.0,89,0.00,,,0.00,WUHU216DAVISVP2,2013-08-09 08:28:00,
2013-08-09 04:33:00,76.7,73.2,29.96,NE,54,0.0,0.0,89,0.00,,,0.00,WUHU216DAVISVP2,2013-08-09 08:33:00,
2013-08-09 04:38:00,76.8,73.6,29.96,NE,54,0.0,0.0,90,0.00,,,0.00,WUHU216DAVISVP2,2013-08-09 08:38:00,
2013-08-09 04:43:00,76.7,73.5,29.96,NE,54,0.0,0.0,90,0.00,,,0.00,WUHU216DAVISVP2,2013-08-09 08:43:00,
2013-08-09 04:48:00,76.7,73.5,29.96,NE,54,0.0,0.0,90,0.00,,,0.00,WUHU216DAVISVP2,2013-08-09 08:48:00,
2013-08-09 04:53:00,76.7,73.5,29.96,NE,54,0.0,0.0,90,0.00,,,0.00,WUHU216DAVISVP2,2013-08-09 08:53:00,
2013-08-09 04:58:00,76.8,73.6,29.96,NE,54,0.0,0.0,90,0.00,,,0.00,WUHU216DAVISVP2,2013-08-09 08:58:00,
2013-08-09 05:03:00,76.8,73.6,29.96,NE,54,0.0,0.0,90,0.00,,,0.00,WUHU216DAVISVP2,2013-08-09 09:03:00,
2013-08-09 05:08:00,76.7,73.5,29.96,NE,54,0.0,0.0,90,0.00,,,0.00,WUHU216DAVISVP2,2013-08-09 09:08:00,
2013-08-09 05:13:00,76.8,73.6,29.96,NE,54,0.0,0.0,90,0.00,,,0.00,WUHU216DAVISVP2,2013-08-09 09:13:00,
2013-08-09 05:18:00,77.0,73.8,29.96,NE,54,0.0,0.0,90,0.00,,,0.00,WUHU216DAVISVP2,2013-08-09 09:18:00,
2013-08-09 05:23:00,76.7,73.5,29.97,NE,54,0.0,0.0,90,0.00,,,0.00,WUHU216DAVISVP2,2013-08-09 09:23:00,
2013-08-09 05:28:00,76.7,73.5,29.97,NE,54,0.0,0.0,90,0.00,,,0.00,WUHU216DAVISVP2,2013-08-09 09:28:00,
2013-08-09 05:33:00,76.8,73.6,29.97,NE,54,0.0,0.0,90,0.00,,,0.00,WUHU216DAVISVP2,2013-08-09 09:33:00,
2013-08-09 05:38:00,76.7,73.5,29.96,NE,54,0.0,0.0,90,0.00,,,0.00,WUHU216DAVISVP2,2013-08-09 09:38:00,
2013-08-09 05:43:00,76.8,73.6,29.96,NE,54,0.0,0.0,90,0.00,,,0.00,WUHU216DAVISVP2,2013-08-09 09:43:00,
2013-08-09 05:48:00,76.7,73.5,29.96,NE,54,0.0,0.0,90,0.00,,,0.00,WUHU216DAVISVP2,2013-08-09 09:48:00,
2013-08-09 05:54:00,77.0,73.8,29.97,NE,54,0.0,0.0,90,0.00,,,0.00,WUHU216DAVISVP2,2013-08-09 09:54:00,
2013-08-09 05:59:00,76.7,73.5,29.97,NE,54,0.0,0.0,90,0.00,,,0.00,WUHU216DAVISVP2,2013-08-09 09:59:00,
2013-08-09 06:04:00,77.0,73.8,29.97,NE,54,0.0,0.0,90,0.00,,,0.00,WUHU216DAVISVP2,2013-08-09 10:04:00,
2013-08-09 06:09:00,77.0,73.8,29.98,NE,54,0.0,0.0,90,0.00,,,0.00,WUHU216DAVISVP2,2013-08-09 10:09:00,
2013-08-09 06:14:00,76.7,73.5,29.98,NE,54,0.0,0.0,90,0.00,,,0.00,WUHU216DAVISVP2,2013-08-09 10:14:00,
2013-08-09 06:19:00,76.7,73.5,29.98,NE,54,0.0,0.0,90,0.00,,,0.00,WUHU216DAVISVP2,2013-08-09 10:19:00,
2013-08-09 06:24:00,76.7,73.5,29.98,NE,54,0.0,0.0,90,0.00,,,0.00,WUHU216DAVISVP2,2013-08-09 10:24:00,
2013-08-09 06:29:00,76.7,73.5,29.98,NE,54,0.0,0.0,90,0.00,,,0.00,WUHU216DAVISVP2,2013-08-09 10:29:00,
2013-08-09 06:34:00,76.7,73.5,29.98,NE,54,0.0,0.0,90,0.00,,,0.00,WUHU216DAVISVP2,2013-08-09 10:34:00,
2013-08-09 06:39:00,76.8,73.6,29.98,NE,54,0.0,0.0,90,0.00,,,0.00,WUHU216DAVISVP2,2013-08-09 10:39:00,
2013-08-09 06:44:00,76.7,73.5,29.98,NE,54,0.0,0.0,90,0.00,,,0.00,WUHU216DAVISVP2,2013-08-09 10:44:00,
2013-08-09 06:49:00,76.7,73.5,29.98,NE,54,0.0,0.0,90,0.00,,,0.00,WUHU216DAVISVP2,2013-08-09 10:49:00,
2013-08-09 06:54:00,77.0,73.8,29.98,NE,54,0.0,0.0,90,0.00,,,0.00,WUHU216DAVISVP2,2013-08-09 10:54:00,
2013-08-09 06:59:00,77.0,73.8,29.98,NE,54,0.0,0.0,90,0.00,,,0.00,WUHU216DAVISVP2,2013-08-09 10:59:00,
2013-08-09 07:04:00,77.2,74.0,29.98,NE,54,0.0,0.0,90,0.00,,,0.00,WUHU216DAVISVP2,2013-08-09 11:04:00,
2013-08-09 07:09:00,77.4,74.2,29.98,NE,54,0.0,0.0,90,0.00,,,0.00,WUHU216DAVISVP2,2013-08-09 11:09:00,
2013-08-09 07:14:00,77.2,74.0,29.98,NE,54,0.0,0.0,90,0.00,,,0.00,WUHU216DAVISVP2,2013-08-09 11:14:00,
2013-08-09 07:19:00,77.6,74.4,29.98,NE,54,0.0,0.0,90,0.00,,,0.00,WUHU216DAVISVP2,2013-08-09 11:19:00,
2013-08-09 07:24:00,77.7,74.5,29.99,NE,54,0.0,0.0,90,0.00,,,0.00,WUHU216DAVISVP2,2013-08-09 11:24:00,
2013-08-09 07:29:00,77.9,74.7,29.99,NE,54,0.0,0.0,90,0.00,,,0.00,WUHU216DAVISVP2,2013-08-09 11:29:00,
2013-08-09 07:34:00,78.6,75.4,29.99,NE,54,0.0,0.0,90,0.00,,,0.00,WUHU216DAVISVP2,2013-08-09 11:34:00,
2013-08-09 07:39:00,78.5,75.3,29.99,NE,54,0.0,0.0,90,0.00,,,0.00,WUHU216DAVISVP2,2013-08-09 11:39:00,
2013-08-09 07:44:00,78.6,75.4,29.99,NE,54,0.0,0.0,90,0.00,,,0.00,WUHU216DAVISVP2,2013-08-09 11:44:00,
2013-08-09 07:49:00,78.8,75.6,29.99,NE,54,0.0,0.0,90,0.00,,,0.00,WUHU216DAVISVP2,2013-08-09 11:49:00,
2013-08-09 07:54:00,78.8,75.6,29.99,NE,51,0.0,2.0,90,0.00,,,0.00,WUHU216DAVISVP2,2013-08-09 11:54:00,
2013-08-09 07:59:00,79.2,76.0,29.99,NE,51,0.0,2.0,90,0.00,,,0.00,WUHU216DAVISVP2,2013-08-09 11:59:00,
2013-08-09 08:04:00,79.4,76.2,29.99,ENE,59,0.0,2.0,90,0.00,,,0.00,WUHU216DAVISVP2,2013-08-09 12:04:00,
2013-08-09 08:09:00,79.8,76.6,29.99,ENE,59,0.0,2.0,90,0.00,,,0.00,WUHU216DAVISVP2,2013-08-09 12:09:00,
2013-08-09 08:14:00,79.6,76.4,29.99,ENE,58,0.0,0.0,90,0.00,,,0.00,WUHU216DAVISVP2,2013-08-09 12:14:00,
2013-08-09 08:19:00,79.8,76.6,29.99,ENE,58,0.0,0.0,90,0.00,,,0.00,WUHU216DAVISVP2,2013-08-09 12:19:00,
2013-08-09 08:24:00,79.4,76.2,29.99,NE,52,0.0,0.0,90,0.00,,,0.00,WUHU216DAVISVP2,2013-08-09 12:24:00,
2013-08-09 08:29:00,79.4,75.9,29.99,North,4,0.0,7.0,89,0.00,,,0.00,WUHU216DAVISVP2,2013-08-09 12:29:00,
2013-08-09 08:34:00,79.8,76.3,29.99,North,0,0.0,7.0,89,0.00,,,0.00,WUHU216DAVISVP2,2013-08-09 12:34:00,
2013-08-09 08:39:00,79.6,75.7,29.99,NE,34,1.0,2.0,88,0.00,,,0.00,WUHU216DAVISVP2,2013-08-09 12:39:00,
2013-08-09 08:44:00,79.6,75.7,29.99,North,350,0.0,6.0,88,0.00,,,0.00,WUHU216DAVISVP2,2013-08-09 12:44:00,
2013-08-09 08:49:00,79.8,75.9,29.99,North,6,0.0,6.0,88,0.00,,,0.00,WUHU216DAVISVP2,2013-08-09 12:49:00,
2013-08-09 08:54:00,79.9,75.7,29.99,North,0,0.0,6.0,87,0.00,,,0.00,WUHU216DAVISVP2,2013-08-09 12:54:00,
2013-08-09 08:59:00,80.1,75.9,29.99,NNE,30,0.0,6.0,87,0.00,,,0.00,WUHU216DAVISVP2,2013-08-09 12:59:00,
2013-08-09 09:04:00,80.3,75.4,29.99,East,85,0.0,2.0,85,0.00,,,0.00,WUHU216DAVISVP2,2013-08-09 13:04:00,
2013-08-09 09:09:00,80.5,75.6,29.99,SW,230,2.0,2.0,85,0.00,,,0.00,WUHU216DAVISVP2,2013-08-09 13:09:00,
2013-08-09 09:14:00,80.5,75.6,29.99,ESE,116,0.0,6.0,85,0.00,,,0.00,WUHU216DAVISVP2,2013-08-09 13:14:00,
2013-08-09 09:19:00,80.9,76.0,29.99,NNW,329,0.0,6.0,85,0.00,,,0.00,WUHU216DAVISVP2,2013-08-09 13:19:00,
2013-08-09 09:24:00,81.2,76.3,29.98,WNW,289,0.0,6.0,85,0.00,,,0.00,WUHU216DAVISVP2,2013-08-09 13:24:00,
2013-08-09 09:30:00,81.4,76.2,29.98,NW,315,0.0,6.0,84,0.00,,,0.00,WUHU216DAVISVP2,2013-08-09 13:30:00,
2013-08-09 09:35:00,81.8,76.1,29.98,SW,217,0.0,2.0,83,0.00,,,0.00,WUHU216DAVISVP2,2013-08-09 13:35:00,
2013-08-09 09:40:00,82.2,76.6,29.98,North,1,0.0,2.0,83,0.00,,,0.00,WUHU216DAVISVP2,2013-08-09 13:40:00,
2013-08-09 09:45:00,82.4,76.4,29.98,NE,48,0.0,7.0,82,0.00,,,0.00,WUHU216DAVISVP2,2013-08-09 13:45:00,
2013-08-09 09:50:00,82.8,76.8,29.98,NE,47,2.0,7.0,82,0.00,,,0.00,WUHU216DAVISVP2,2013-08-09 13:50:00,
2013-08-09 09:55:00,83.0,76.7,29.98,SW,217,0.0,6.0,81,0.00,,,0.00,WUHU216DAVISVP2,2013-08-09 13:55:00,
2013-08-09 10:00:00,83.6,77.1,29.98,North,349,2.0,6.0,81,0.00,,,0.00,WUHU216DAVISVP2,2013-08-09 14:00:00,
2013-08-09 10:05:00,83.6,76.9,29.98,ENE,58,2.0,11.0,80,0.00,,,0.00,WUHU216DAVISVP2,2013-08-09 14:05:00,
2013-08-09 10:10:00,83.8,77.1,29.99,NE,34,0.0,11.0,80,0.00,,,0.00,WUHU216DAVISVP2,2013-08-09 14:10:00,
2013-08-09 10:15:00,84.1,76.5,29.99,North,357,0.0,4.0,78,0.00,,,0.00,WUHU216DAVISVP2,2013-08-09 14:15:00,
2013-08-09 10:20:00,84.3,76.8,29.99,NNE,13,0.0,4.0,78,0.00,,,0.00,WUHU216DAVISVP2,2013-08-09 14:20:00,
2013-08-09 10:26:00,84.5,77.0,29.99,North,353,0.0,8.0,78,0.00,,,0.00,WUHU216DAVISVP2,2013-08-09 14:26:00,
2013-08-09 10:31:00,84.7,77.2,29.99,North,3,0.0,9.0,78,0.00,,,0.00,WUHU216DAVISVP2,2013-08-09 14:31:00,
2013-08-09 10:36:00,85.1,77.6,29.99,North,0,0.0,9.0,78,0.00,,,0.00,WUHU216DAVISVP2,2013-08-09 14:36:00,
2013-08-09 10:41:00,85.7,77.8,29.99,NE,40,0.0,1.0,77,0.00,,,0.00,WUHU216DAVISVP2,2013-08-09 14:41:00,
2013-08-09 10:47:00,85.7,77.5,29.99,North,0,0.0,1.0,76,0.00,,,0.00,WUHU216DAVISVP2,2013-08-09 14:47:00,
2013-08-09 10:52:00,85.7,77.1,29.99,NW,306,1.0,7.0,75,0.00,,,0.00,WUHU216DAVISVP2,2013-08-09 14:52:00,
2013-08-09 10:57:00,85.7,77.1,29.99,SSE,151,1.0,7.0,75,0.00,,,0.00,WUHU216DAVISVP2,2013-08-09 14:57:00,
2013-08-09 11:02:00,85.7,77.1,29.99,North,0,4.0,7.0,75,0.00,,,0.00,WUHU216DAVISVP2,2013-08-09 15:02:00,
2013-08-09 11:07:00,85.9,76.6,29.99,NNE,32,0.0,7.0,74,0.00,,,0.00,WUHU216DAVISVP2,2013-08-09 15:07:00,
2013-08-09 11:12:00,86.1,76.7,30.00,North,0,0.0,6.0,73,0.00,,,0.00,WUHU216DAVISVP2,2013-08-09 15:12:00,
2013-08-09 11:17:00,86.3,77.0,30.00,ENE,69,0.0,2.0,74,0.00,,,0.00,WUHU216DAVISVP2,2013-08-09 15:17:00,
2013-08-09 11:22:00,86.7,77.6,30.00,North,1,1.0,9.0,74,0.00,,,0.00,WUHU216DAVISVP2,2013-08-09 15:22:00,
2013-08-09 11:27:00,87.0,77.3,29.99,WSW,244,1.0,9.0,73,0.00,,,0.00,WUHU216DAVISVP2,2013-08-09 15:27:00,
2013-08-09 11:32:00,87.2,77.3,29.99,ENE,65,0.0,4.0,72,0.00,,,0.00,WUHU216DAVISVP2,2013-08-09 15:32:00,
2013-08-09 11:37:00,87.4,77.3,29.99,NW,306,0.0,1.0,72,0.00,,,0.00,WUHU216DAVISVP2,2013-08-09 15:37:00,
2013-08-09 11:42:00,87.8,77.9,29.99,NNW,329,9.0,9.0,72,0.00,,,0.00,WUHU216DAVISVP2,2013-08-09 15:42:00,
2013-08-09 11:47:00,88.0,77.7,29.99,North,11,0.0,9.0,71,0.00,,,0.00,WUHU216DAVISVP2,2013-08-09 15:47:00,
2013-08-09 11:52:00,88.2,77.9,29.99,SW,216,0.0,4.0,71,0.00,,,0.00,WUHU216DAVISVP2,2013-08-09 15:52:00,
2013-08-09 11:57:00,88.6,78.0,29.99,NNE,18,0.0,2.0,71,0.00,,,0.00,WUHU216DAVISVP2,2013-08-09 15:57:00,
2013-08-09 12:02:00,88.8,77.6,29.99,NNE,24,2.0,2.0,69,0.00,,,0.00,WUHU216DAVISVP2,2013-08-09 16:02:00,
2013-08-09 12:07:00,89.0,77.9,29.99,North,356,1.0,2.0,70,0.00,,,0.00,WUHU216DAVISVP2,2013-08-09 16:07:00,
2013-08-09 12:12:00,88.8,78.0,29.98,NW,315,1.0,2.0,70,0.00,,,0.00,WUHU216DAVISVP2,2013-08-09 16:12:00,
2013-08-09 12:17:00,88.6,77.1,29.98,NW,323,0.0,9.0,69,0.00,,,0.00,WUHU216DAVISVP2,2013-08-09 16:17:00,
2013-08-09 12:22:00,88.4,76.8,29.98,NNW,344,0.0,9.0,68,0.00,,,0.00,WUHU216DAVISVP2,2013-08-09 16:22:00,
2013-08-09 12:27:00,88.8,77.6,29.98,NNW,328,0.0,2.0,69,0.00,,,0.00,WUHU216DAVISVP2,2013-08-09 16:27:00,
2013-08-09 12:32:00,88.8,77.2,29.98,SSE,160,0.0,2.0,68,0.00,,,0.00,WUHU216DAVISVP2,2013-08-09 16:32:00,
2013-08-09 12:37:00,88.6,77.0,29.98,NE,44,1.0,2.0,68,0.00,,,0.00,WUHU216DAVISVP2,2013-08-09 16:37:00,
2013-08-09 12:42:00,88.4,76.3,29.99,NNE,32,2.0,9.0,67,0.00,,,0.00,WUHU216DAVISVP2,2013-08-09 16:42:00,
2013-08-09 12:47:00,88.4,76.3,29.99,East,99,0.0,9.0,67,0.00,,,0.00,WUHU216DAVISVP2,2013-08-09 16:47:00,
2013-08-09 12:52:00,88.6,77.0,29.99,NW,326,0.0,7.0,68,0.00,,,0.00,WUHU216DAVISVP2,2013-08-09 16:52:00,
2013-08-09 12:57:00,88.8,76.9,29.98,WNW,285,4.0,7.0,68,0.00,,,0.00,WUHU216DAVISVP2,2013-08-09 16:57:00,
2013-08-09 13:02:00,88.8,76.7,29.98,NE,48,0.0,6.0,67,0.00,,,0.00,WUHU216DAVISVP2,2013-08-09 17:02:00,
2013-08-09 13:07:00,88.8,76.3,29.98,NE,44,1.0,10.0,66,0.00,,,0.00,WUHU216DAVISVP2,2013-08-09 17:07:00,
2013-08-09 13:12:00,88.8,76.7,29.98,SW,215,0.0,10.0,67,0.00,,,0.00,WUHU216DAVISVP2,2013-08-09 17:12:00,
2013-08-09 13:17:00,88.8,77.2,29.98,ENE,76,0.0,2.0,68,0.00,,,0.00,WUHU216DAVISVP2,2013-08-09 17:17:00,
2013-08-09 13:22:00,89.0,77.4,29.98,NE,54,2.0,2.0,68,0.00,,,0.00,WUHU216DAVISVP2,2013-08-09 17:22:00,
2013-08-09 13:27:00,89.3,77.2,29.98,NE,42,0.0,2.0,67,0.00,,,0.00,WUHU216DAVISVP2,2013-08-09 17:27:00,
2013-08-09 13:32:00,89.7,77.6,29.98,North,0,0.0,4.0,67,0.00,,,0.00,WUHU216DAVISVP2,2013-08-09 17:32:00,
2013-08-09 13:37:00,89.7,77.3,29.98,ENE,76,0.0,6.0,67,0.00,,,0.00,WUHU216DAVISVP2,2013-08-09 17:37:00,
2013-08-09 13:42:00,89.7,77.1,29.97,North,0,0.0,6.0,66,0.00,,,0.00,WUHU216DAVISVP2,2013-08-09 17:42:00,
2013-08-09 13:47:00,90.1,77.5,29.97,ESE,114,0.0,1.0,66,0.00,,,0.00,WUHU216DAVISVP2,2013-08-09 17:47:00,
2013-08-09 13:52:00,90.3,76.9,29.97,ENE,66,1.0,2.0,65,0.00,,,0.00,WUHU216DAVISVP2,2013-08-09 17:52:00,
2013-08-09 13:57:00,90.5,77.9,29.97,NW,320,4.0,8.0,66,0.00,,,0.00,WUHU216DAVISVP2,2013-08-09 17:57:00,
2013-08-09 14:02:00,90.3,77.2,29.97,NW,318,0.0,8.0,65,0.00,,,0.00,WUHU216DAVISVP2,2013-08-09 18:02:00,
2013-08-09 14:07:00,90.5,77.4,29.97,NNW,335,0.0,8.0,65,0.00,,,0.00,WUHU216DAVISVP2,2013-08-09 18:07:00,
2013-08-09 14:12:00,90.7,78.2,29.96,ENE,65,0.0,4.0,67,0.00,,,0.00,WUHU216DAVISVP2,2013-08-09 18:12:00,
2013-08-09 14:17:00,90.3,76.9,29.96,NW,322,0.0,9.0,65,0.00,,,0.00,WUHU216DAVISVP2,2013-08-09 18:17:00,
2013-08-09 14:22:00,90.7,76.8,29.96,NNW,339,6.0,9.0,64,0.00,,,0.00,WUHU216DAVISVP2,2013-08-09 18:22:00,
2013-08-09 14:27:00,91.0,77.4,29.96,NE,55,4.0,6.0,64,0.00,,,0.00,WUHU216DAVISVP2,2013-08-09 18:27:00,
2013-08-09 14:32:00,90.3,77.2,29.96,NE,49,0.0,4.0,65,0.00,,,0.00,WUHU216DAVISVP2,2013-08-09 18:32:00,
2013-08-09 14:37:00,90.3,77.2,29.96,NNE,28,0.0,4.0,65,0.00,,,0.00,WUHU216DAVISVP2,2013-08-09 18:37:00,
2013-08-09 14:42:00,90.5,77.0,29.96,NNE,32,0.0,4.0,64,0.00,,,0.00,WUHU216DAVISVP2,2013-08-09 18:42:00,
2013-08-09 14:47:00,90.5,77.6,29.96,NW,308,0.0,2.0,66,0.00,,,0.00,WUHU216DAVISVP2,2013-08-09 18:47:00,
2013-08-09 14:52:00,90.3,76.9,29.96,North,356,0.0,1.0,65,0.00,,,0.00,WUHU216DAVISVP2,2013-08-09 18:52:00,
2013-08-09 14:57:00,89.7,75.9,29.95,WNW,291,0.0,6.0,64,0.00,,,0.00,WUHU216DAVISVP2,2013-08-09 18:57:00,
2013-08-09 15:02:00,89.9,76.9,29.95,West,272,0.0,6.0,65,0.00,,,0.00,WUHU216DAVISVP2,2013-08-09 19:02:00,
2013-08-09 15:07:00,89.7,76.7,29.95,North,0,1.0,2.0,65,0.00,,,0.00,WUHU216DAVISVP2,2013-08-09 19:07:00,
2013-08-09 15:12:00,89.7,76.7,29.95,ENE,78,0.0,4.0,65,0.00,,,0.00,WUHU216DAVISVP2,2013-08-09 19:12:00,
2013-08-09 15:17:00,90.1,77.5,29.95,North,0,0.0,4.0,66,0.00,,,0.00,WUHU216DAVISVP2,2013-08-09 19:17:00,
2013-08-09 15:22:00,90.3,76.8,29.95,WNW,289,0.0,2.0,64,0.00,,,0.00,WUHU216DAVISVP2,2013-08-09 19:22:00,
2013-08-09 15:27:00,90.1,76.1,29.95,North,350,4.0,4.0,63,0.00,,,0.00,WUHU216DAVISVP2,2013-08-09 19:27:00,
2013-08-09 15:32:00,89.7,75.9,29.95,ENE,62,1.0,6.0,64,0.00,,,0.00,WUHU216DAVISVP2,2013-08-09 19:32:00,
2013-08-09 15:37:00,89.9,77.0,29.95,ENE,69,0.0,6.0,66,0.00,,,0.00,WUHU216DAVISVP2,2013-08-09 19:37:00,
2013-08-09 15:42:00,90.1,75.8,29.95,ENE,62,0.0,4.0,63,0.00,,,0.00,WUHU216DAVISVP2,2013-08-09 19:42:00,
2013-08-09 15:47:00,90.3,76.5,29.95,NE,42,0.0,4.0,64,0.00,,,0.00,WUHU216DAVISVP2,2013-08-09 19:47:00,
2013-08-09 15:52:00,90.5,76.7,29.95,SE,137,1.0,4.0,64,0.00,,,0.00,WUHU216DAVISVP2,2013-08-09 19:52:00,
2013-08-09 15:57:00,90.5,75.7,29.94,North,357,1.0,9.0,62,0.00,,,0.00,WUHU216DAVISVP2,2013-08-09 19:57:00,
2013-08-09 16:02:00,90.7,76.2,29.94,ESE,117,1.0,9.0,62,0.00,,,0.00,WUHU216DAVISVP2,2013-08-09 20:02:00,
2013-08-09 16:07:00,91.0,76.5,29.94,NNE,28,2.0,7.0,62,0.00,,,0.00,WUHU216DAVISVP2,2013-08-09 20:07:00,
2013-08-09 16:12:00,90.7,76.2,29.93,NNE,31,0.0,7.0,62,0.00,,,0.00,WUHU216DAVISVP2,2013-08-09 20:12:00,
2013-08-09 16:17:00,90.7,76.2,29.93,NE,56,2.0,7.0,62,0.00,,,0.00,WUHU216DAVISVP2,2013-08-09 20:17:00,
2013-08-09 16:22:00,90.5,75.5,29.93,NE,56,0.0,2.0,61,0.00,,,0.00,WUHU216DAVISVP2,2013-08-09 20:22:00,
2013-08-09 16:27:00,90.5,76.5,29.93,North,353,0.0,4.0,63,0.00,,,0.00,WUHU216DAVISVP2,2013-08-09 20:27:00,
2013-08-09 16:32:00,90.5,76.0,29.93,NNE,17,1.0,9.0,62,0.00,,,0.00,WUHU216DAVISVP2,2013-08-09 20:32:00,
2013-08-09 16:37:00,90.5,75.7,29.93,SSW,205,1.0,9.0,62,0.00,,,0.00,WUHU216DAVISVP2,2013-08-09 20:37:00,
2013-08-09 16:42:00,90.7,75.9,29.93,WNW,289,0.0,4.0,62,0.00,,,0.00,WUHU216DAVISVP2,2013-08-09 20:42:00,
2013-08-09 16:48:00,91.0,76.5,29.93,WNW,285,0.0,1.0,62,0.00,,,0.00,WUHU216DAVISVP2,2013-08-09 20:48:00,
2013-08-09 16:53:00,91.0,76.2,29.92,ENE,64,1.0,4.0,62,0.00,,,0.00,WUHU216DAVISVP2,2013-08-09 20:53:00,
2013-08-09 16:58:00,90.5,76.0,29.92,ENE,59,0.0,4.0,62,0.00,,,0.00,WUHU216DAVISVP2,2013-08-09 20:58:00,
2013-08-09 17:03:00,90.5,74.7,29.92,North,11,1.0,6.0,60,0.00,,,0.00,WUHU216DAVISVP2,2013-08-09 21:03:00,
2013-08-09 17:08:00,90.5,76.0,29.93,ESE,121,0.0,6.0,62,0.00,,,0.00,WUHU216DAVISVP2,2013-08-09 21:08:00,
2013-08-09 17:13:00,90.5,75.0,29.93,NNW,344,2.0,4.0,60,0.00,,,0.00,WUHU216DAVISVP2,2013-08-09 21:13:00,
2013-08-09 17:18:00,90.7,76.2,29.93,North,1,1.0,4.0,62,0.00,,,0.00,WUHU216DAVISVP2,2013-08-09 21:18:00,
2013-08-09 17:23:00,90.7,75.2,29.93,North,0,0.0,8.0,60,0.00,,,0.00,WUHU216DAVISVP2,2013-08-09 21:23:00,
2013-08-09 17:28:00,90.5,75.5,29.93,ENE,58,0.0,8.0,61,0.00,,,0.00,WUHU216DAVISVP2,2013-08-09 21:28:00,
2013-08-09 17:33:00,90.5,76.0,29.93,NNW,333,4.0,4.0,62,0.00,,,0.00,WUHU216DAVISVP2,2013-08-09 21:33:00,
2013-08-09 17:38:00,90.5,75.5,29.93,NNE,18,0.0,4.0,61,0.00,,,0.00,WUHU216DAVISVP2,2013-08-09 21:38:00,
2013-08-09 17:43:00,90.1,75.6,29.93,SW,230,0.0,1.0,62,0.00,,,0.00,WUHU216DAVISVP2,2013-08-09 21:43:00,
2013-08-09 17:48:00,89.9,75.4,29.93,ESE,109,0.0,7.0,62,0.00,,,0.00,WUHU216DAVISVP2,2013-08-09 21:48:00,
2013-08-09 17:53:00,89.9,76.4,29.93,ESE,107,0.0,7.0,64,0.00,,,0.00,WUHU216DAVISVP2,2013-08-09 21:53:00,
2013-08-09 17:58:00,89.9,75.9,29.93,East,95,0.0,0.0,63,0.00,,,0.00,WUHU216DAVISVP2,2013-08-09 21:58:00,
2013-08-09 18:03:00,89.7,76.2,29.93,East,95,0.0,0.0,64,0.00,,,0.00,WUHU216DAVISVP2,2013-08-09 22:03:00,
2013-08-09 18:08:00,89.0,75.2,29.93,East,93,0.0,1.0,64,0.00,,,0.00,WUHU216DAVISVP2,2013-08-09 22:08:00,
2013-08-09 18:13:00,88.2,74.9,29.93,ENE,75,0.0,1.0,65,0.00,,,0.00,WUHU216DAVISVP2,2013-08-09 22:13:00,
2013-08-09 18:18:00,87.4,74.9,29.93,ENE,75,0.0,1.0,66,0.00,,,0.00,WUHU216DAVISVP2,2013-08-09 22:18:00,
2013-08-09 18:23:00,86.7,74.7,29.93,West,274,0.0,6.0,67,0.00,,,0.00,WUHU216DAVISVP2,2013-08-09 22:23:00,
2013-08-09 18:28:00,86.1,74.6,29.93,West,274,0.0,6.0,68,0.00,,,0.00,WUHU216DAVISVP2,2013-08-09 22:28:00,
2013-08-09 18:34:00,85.7,74.4,29.93,West,274,0.0,0.0,69,0.00,,,0.00,WUHU216DAVISVP2,2013-08-09 22:34:00,
2013-08-09 18:39:00,85.1,74.2,29.93,West,274,0.0,0.0,70,0.00,,,0.00,WUHU216DAVISVP2,2013-08-09 22:39:00,
2013-08-09 18:45:00,84.7,74.3,29.93,West,277,0.0,0.0,71,0.00,,,0.00,WUHU216DAVISVP2,2013-08-09 22:45:00,
2013-08-09 18:50:00,84.3,74.3,29.93,West,277,0.0,0.0,72,0.00,,,0.00,WUHU216DAVISVP2,2013-08-09 22:50:00,
2013-08-09 18:55:00,84.1,74.3,29.93,West,277,0.0,0.0,72,0.00,,,0.00,WUHU216DAVISVP2,2013-08-09 22:55:00,
2013-08-09 19:00:00,84.0,74.4,29.93,West,277,0.0,0.0,73,0.00,,,0.00,WUHU216DAVISVP2,2013-08-09 23:00:00,
2013-08-09 19:05:00,83.8,74.6,29.93,West,277,0.0,0.0,74,0.00,,,0.00,WUHU216DAVISVP2,2013-08-09 23:05:00,
2013-08-09 19:10:00,83.6,74.6,29.93,West,277,0.0,0.0,74,0.00,,,0.00,WUHU216DAVISVP2,2013-08-09 23:10:00,
2013-08-09 19:15:00,83.4,74.8,29.93,West,277,0.0,0.0,75,0.00,,,0.00,WUHU216DAVISVP2,2013-08-09 23:15:00,
2013-08-09 19:20:00,83.2,74.6,29.93,West,277,0.0,0.0,75,0.00,,,0.00,WUHU216DAVISVP2,2013-08-09 23:20:00,
2013-08-09 19:25:00,83.2,75.0,29.93,West,277,0.0,0.0,76,0.00,,,0.00,WUHU216DAVISVP2,2013-08-09 23:25:00,
2013-08-09 19:30:00,83.0,74.8,29.93,West,277,0.0,0.0,76,0.00,,,0.00,WUHU216DAVISVP2,2013-08-09 23:30:00,
2013-08-09 19:35:00,82.8,75.0,29.93,West,277,0.0,0.0,77,0.00,,,0.00,WUHU216DAVISVP2,2013-08-09 23:35:00,
2013-08-09 19:40:00,82.6,74.8,29.95,West,277,0.0,0.0,77,0.00,,,0.00,WUHU216DAVISVP2,2013-08-09 23:40:00,
2013-08-09 19:45:00,82.4,74.6,29.95,West,277,0.0,0.0,77,0.00,,,0.00,WUHU216DAVISVP2,2013-08-09 23:45:00,
2013-08-09 19:50:00,82.2,74.8,29.95,West,277,0.0,0.0,78,0.00,,,0.00,WUHU216DAVISVP2,2013-08-09 23:50:00,
2013-08-09 19:55:00,82.0,74.2,29.95,East,86,0.0,1.0,77,0.00,,,0.00,WUHU216DAVISVP2,2013-08-09 23:55:00,
2013-08-09 20:00:00,82.0,74.6,29.95,East,86,0.0,1.0,78,0.00,,,0.00,WUHU216DAVISVP2,2013-08-10 00:00:00,
2013-08-09 20:05:00,81.8,74.4,29.95,East,86,0.0,0.0,78,0.00,,,0.00,WUHU216DAVISVP2,2013-08-10 00:05:00,
2013-08-09 20:10:00,81.8,74.4,29.95,East,86,0.0,0.0,78,0.00,,,0.00,WUHU216DAVISVP2,2013-08-10 00:10:00,
2013-08-09 20:15:00,81.6,74.2,29.95,East,82,0.0,0.0,78,0.00,,,0.00,WUHU216DAVISVP2,2013-08-10 00:15:00,
2013-08-09 20:21:00,81.4,74.0,29.95,East,82,0.0,0.0,78,0.00,,,0.00,WUHU216DAVISVP2,2013-08-10 00:21:00,
2013-08-09 20:26:00,81.4,74.4,29.96,East,82,0.0,0.0,79,0.00,,,0.00,WUHU216DAVISVP2,2013-08-10 00:26:00,
2013-08-09 20:31:00,81.2,74.2,29.96,East,82,0.0,0.0,79,0.00,,,0.00,WUHU216DAVISVP2,2013-08-10 00:31:00,
2013-08-09 20:36:00,81.2,74.2,29.96,East,82,0.0,0.0,79,0.00,,,0.00,WUHU216DAVISVP2,2013-08-10 00:36:00,
2013-08-09 20:41:00,81.1,74.1,29.95,East,82,0.0,0.0,79,0.00,,,0.00,WUHU216DAVISVP2,2013-08-10 00:41:00,
2013-08-09 20:46:00,80.9,73.9,29.95,East,82,0.0,0.0,79,0.00,,,0.00,WUHU216DAVISVP2,2013-08-10 00:46:00,
2013-08-09 20:51:00,80.7,73.7,29.95,East,82,0.0,0.0,79,0.00,,,0.00,WUHU216DAVISVP2,2013-08-10 00:51:00,
2013-08-09 20:56:00,80.7,74.1,29.95,East,82,0.0,0.0,80,0.00,,,0.00,WUHU216DAVISVP2,2013-08-10 00:56:00,
2013-08-09 21:01:00,80.5,73.9,29.95,East,82,0.0,0.0,80,0.00,,,0.00,WUHU216DAVISVP2,2013-08-10 01:01:00,
2013-08-09 21:06:00,80.3,73.7,29.95,East,82,0.0,0.0,80,0.00,,,0.00,WUHU216DAVISVP2,2013-08-10 01:06:00,
2013-08-09 21:11:00,80.1,73.5,29.97,East,82,0.0,0.0,80,0.00,,,0.00,WUHU216DAVISVP2,2013-08-10 01:11:00,
2013-08-09 21:16:00,79.8,73.2,29.97,East,82,0.0,0.0,80,0.00,,,0.00,WUHU216DAVISVP2,2013-08-10 01:16:00,
2013-08-09 21:21:00,79.6,73.0,29.97,East,82,0.0,0.0,80,0.00,,,0.00,WUHU216DAVISVP2,2013-08-10 01:21:00,
2013-08-09 21:26:00,79.4,72.8,29.97,East,82,0.0,0.0,80,0.00,,,0.00,WUHU216DAVISVP2,2013-08-10 01:26:00,
2013-08-09 21:31:00,79.2,72.6,29.97,East,82,0.0,0.0,80,0.00,,,0.00,WUHU216DAVISVP2,2013-08-10 01:31:00,
2013-08-09 21:36:00,79.2,73.0,29.97,East,82,0.0,0.0,81,0.00,,,0.00,WUHU216DAVISVP2,2013-08-10 01:36:00,
2013-08-09 21:41:00,79.0,72.8,29.98,East,82,0.0,0.0,81,0.00,,,0.00,WUHU216DAVISVP2,2013-08-10 01:41:00,
2013-08-09 21:46:00,78.8,72.6,29.98,East,82,0.0,0.0,81,0.00,,,0.00,WUHU216DAVISVP2,2013-08-10 01:46:00,
2013-08-09 21:51:00,78.8,72.6,29.98,East,82,0.0,0.0,81,0.00,,,0.00,WUHU216DAVISVP2,2013-08-10 01:51:00,
2013-08-09 21:56:00,78.6,72.4,29.98,East,82,0.0,0.0,81,0.00,,,0.00,WUHU216DAVISVP2,2013-08-10 01:56:00,
2013-08-09 22:01:00,78.6,72.3,29.98,East,82,0.0,0.0,81,0.00,,,0.00,WUHU216DAVISVP2,2013-08-10 02:01:00,
2013-08-09 22:06:00,78.6,72.7,29.98,East,82,0.0,0.0,82,0.00,,,0.00,WUHU216DAVISVP2,2013-08-10 02:06:00,
2013-08-09 22:11:00,78.5,72.6,29.98,East,82,0.0,0.0,82,0.00,,,0.00,WUHU216DAVISVP2,2013-08-10 02:11:00,
2013-08-09 22:16:00,78.5,72.6,29.98,East,82,0.0,0.0,82,0.00,,,0.00,WUHU216DAVISVP2,2013-08-10 02:16:00,
2013-08-09 22:21:00,78.5,72.6,29.98,East,82,0.0,0.0,82,0.00,,,0.00,WUHU216DAVISVP2,2013-08-10 02:21:00,
2013-08-09 22:26:00,78.3,72.4,29.98,East,82,0.0,0.0,82,0.00,,,0.00,WUHU216DAVISVP2,2013-08-10 02:26:00,
2013-08-09 22:31:00,78.3,72.3,29.98,East,82,0.0,0.0,82,0.00,,,0.00,WUHU216DAVISVP2,2013-08-10 02:31:00,
2013-08-09 22:36:00,78.3,72.7,29.98,East,82,0.0,0.0,83,0.00,,,0.00,WUHU216DAVISVP2,2013-08-10 02:36:00,
2013-08-09 22:41:00,78.1,72.6,29.99,East,82,0.0,0.0,83,0.00,,,0.00,WUHU216DAVISVP2,2013-08-10 02:41:00,
2013-08-09 22:46:00,78.1,72.6,29.99,East,82,0.0,0.0,83,0.00,,,0.00,WUHU216DAVISVP2,2013-08-10 02:46:00,
2013-08-09 22:51:00,78.1,72.6,29.99,East,82,0.0,0.0,83,0.00,,,0.00,WUHU216DAVISVP2,2013-08-10 02:51:00,
2013-08-09 22:56:00,78.1,72.6,29.99,East,82,0.0,0.0,83,0.00,,,0.00,WUHU216DAVISVP2,2013-08-10 02:56:00,
2013-08-09 23:01:00,77.9,72.4,29.99,East,82,0.0,0.0,83,0.00,,,0.00,WUHU216DAVISVP2,2013-08-10 03:01:00,
2013-08-09 23:06:00,77.9,72.4,29.99,East,82,0.0,0.0,83,0.00,,,0.00,WUHU216DAVISVP2,2013-08-10 03:06:00,
2013-08-09 23:11:00,77.9,72.4,30.00,East,82,0.0,0.0,83,0.00,,,0.00,WUHU216DAVISVP2,2013-08-10 03:11:00,
2013-08-09 23:16:00,77.9,72.4,30.00,East,82,0.0,0.0,83,0.00,,,0.00,WUHU216DAVISVP2,2013-08-10 03:16:00,
2013-08-09 23:21:00,77.9,72.4,30.00,East,82,0.0,0.0,83,0.00,,,0.00,WUHU216DAVISVP2,2013-08-10 03:21:00,
2013-08-09 23:27:00,77.7,72.2,30.00,East,82,0.0,0.0,83,0.00,,,0.00,WUHU216DAVISVP2,2013-08-10 03:27:00,
2013-08-09 23:32:00,77.7,72.5,30.00,East,82,0.0,0.0,84,0.00,,,0.00,WUHU216DAVISVP2,2013-08-10 03:32:00,
2013-08-09 23:38:00,77.6,72.4,30.00,East,82,0.0,0.0,84,0.00,,,0.00,WUHU216DAVISVP2,2013-08-10 03:38:00,
2013-08-09 23:43:00,77.6,72.4,30.00,East,82,0.0,0.0,84,0.00,,,0.00,WUHU216DAVISVP2,2013-08-10 03:43:00,
2013-08-09 23:48:00,77.4,72.2,30.00,East,82,0.0,0.0,84,0.00,,,0.00,WUHU216DAVISVP2,2013-08-10 03:48:00,
2013-08-09 23:53:00,77.4,72.2,30.00,East,82,0.0,0.0,84,0.00,,,0.00,WUHU216DAVISVP2,2013-08-10 03:53:00,
2013-08-09 23:58:00,77.4,72.2,30.00,East,82,0.0,0.0,84,0.00,,,0.00,WUHU216DAVISVP2,2013-08-10 03:58:00,